sensor_id;sensor_type;location;lat;lon;timestamp;temperature;humidity
2391;DHT22;22957;50.824;4.360;2023-06-14T00:02:19;22.50;72.60
2391;DHT22;22957;50.824;4.360;2023-06-14T00:04:44;22.40;72.40
2391;DHT22;22957;50.824;4.360;2023-06-14T00:07:13;22.20;73.10
2391;DHT22;22957;50.824;4.360;2023-06-14T00:09:39;22.50;72.70
2391;DHT22;22957;50.824;4.360;2023-06-14T00:12:04;22.50;73.70
2391;DHT22;22957;50.824;4.360;2023-06-14T00:14:31;22.00;73.90
2391;DHT22;22957;50.824;4.360;2023-06-14T00:16:57;22.50;74.30
2391;DHT22;22957;50.824;4.360;2023-06-14T00:19:24;22.40;73.20
2391;DHT22;22957;50.824;4.360;2023-06-14T00:21:50;22.10;73.60
2391;DHT22;22957;50.824;4.360;2023-06-14T00:24:17;22.30;73.60
2391;DHT22;22957;50.824;4.360;2023-06-14T00:26:43;22.30;73.80
2391;DHT22;22957;50.824;4.360;2023-06-14T00:29:08;22.40;73.70
2391;DHT22;22957;50.824;4.360;2023-06-14T00:31:34;22.20;74.40
2391;DHT22;22957;50.824;4.360;2023-06-14T00:33:59;21.90;74.90
2391;DHT22;22957;50.824;4.360;2023-06-14T00:36:25;21.80;76.60
2391;DHT22;22957;50.824;4.360;2023-06-14T00:38:51;21.90;76.30
2391;DHT22;22957;50.824;4.360;2023-06-14T00:41:16;22.00;76.20
2391;DHT22;22957;50.824;4.360;2023-06-14T00:43:42;21.90;76.30
2391;DHT22;22957;50.824;4.360;2023-06-14T00:46:08;21.70;76.50
2391;DHT22;22957;50.824;4.360;2023-06-14T00:48:34;21.60;76.50
2391;DHT22;22957;50.824;4.360;2023-06-14T00:51:01;21.60;77.10
2391;DHT22;22957;50.824;4.360;2023-06-14T00:53:30;21.30;77.70
2391;DHT22;22957;50.824;4.360;2023-06-14T00:55:56;21.30;78.90
2391;DHT22;22957;50.824;4.360;2023-06-14T00:58:22;21.50;77.40
2391;DHT22;22957;50.824;4.360;2023-06-14T01:00:48;21.40;77.50
2391;DHT22;22957;50.824;4.360;2023-06-14T01:03:13;21.20;78.20
2391;DHT22;22957;50.824;4.360;2023-06-14T01:05:47;21.30;78.40
2391;DHT22;22957;50.824;4.360;2023-06-14T01:08:36;21.20;78.80
2391;DHT22;22957;50.824;4.360;2023-06-14T01:11:13;21.30;78.60
2391;DHT22;22957;50.824;4.360;2023-06-14T01:13:45;21.20;79.50
2391;DHT22;22957;50.824;4.360;2023-06-14T01:16:12;21.70;78.10
2391;DHT22;22957;50.824;4.360;2023-06-14T01:18:38;21.50;77.90
2391;DHT22;22957;50.824;4.360;2023-06-14T01:21:03;21.70;78.10
2391;DHT22;22957;50.824;4.360;2023-06-14T01:23:34;22.10;77.90
2391;DHT22;22957;50.824;4.360;2023-06-14T01:26:00;22.00;77.90
2391;DHT22;22957;50.824;4.360;2023-06-14T01:28:29;21.70;77.30
2391;DHT22;22957;50.824;4.360;2023-06-14T01:31:00;21.50;78.60
2391;DHT22;22957;50.824;4.360;2023-06-14T01:33:30;21.80;78.50
2391;DHT22;22957;50.824;4.360;2023-06-14T01:35:56;21.80;77.90
2391;DHT22;22957;50.824;4.360;2023-06-14T01:38:25;21.50;78.80
2391;DHT22;22957;50.824;4.360;2023-06-14T01:40:54;21.30;79.70
2391;DHT22;22957;50.824;4.360;2023-06-14T01:43:20;21.30;79.40
2391;DHT22;22957;50.824;4.360;2023-06-14T01:45:47;21.20;79.20
2391;DHT22;22957;50.824;4.360;2023-06-14T01:48:14;21.00;79.80
2391;DHT22;22957;50.824;4.360;2023-06-14T01:50:40;21.10;81.50
2391;DHT22;22957;50.824;4.360;2023-06-14T01:53:07;21.10;80.50
2391;DHT22;22957;50.824;4.360;2023-06-14T01:55:34;21.60;79.60
2391;DHT22;22957;50.824;4.360;2023-06-14T01:58:03;21.10;79.90
2391;DHT22;22957;50.824;4.360;2023-06-14T02:00:30;21.20;80.80
2391;DHT22;22957;50.824;4.360;2023-06-14T02:02:55;21.80;79.60
2391;DHT22;22957;50.824;4.360;2023-06-14T02:05:21;21.50;80.10
2391;DHT22;22957;50.824;4.360;2023-06-14T02:07:47;21.20;80.50
2391;DHT22;22957;50.824;4.360;2023-06-14T02:10:13;21.40;80.20
2391;DHT22;22957;50.824;4.360;2023-06-14T02:12:40;20.80;81.50
2391;DHT22;22957;50.824;4.360;2023-06-14T02:15:06;20.60;83.20
2391;DHT22;22957;50.824;4.360;2023-06-14T02:17:32;20.60;83.20
2391;DHT22;22957;50.824;4.360;2023-06-14T02:19:58;20.90;82.20
2391;DHT22;22957;50.824;4.360;2023-06-14T02:22:24;20.60;82.70
2391;DHT22;22957;50.824;4.360;2023-06-14T02:24:49;20.30;83.20
2391;DHT22;22957;50.824;4.360;2023-06-14T02:27:15;20.30;84.50
2391;DHT22;22957;50.824;4.360;2023-06-14T02:29:41;20.20;84.80
2391;DHT22;22957;50.824;4.360;2023-06-14T02:32:06;20.00;85.90
2391;DHT22;22957;50.824;4.360;2023-06-14T02:34:33;20.10;85.50
2391;DHT22;22957;50.824;4.360;2023-06-14T02:36:59;20.40;85.20
2391;DHT22;22957;50.824;4.360;2023-06-14T02:39:25;20.50;84.70
2391;DHT22;22957;50.824;4.360;2023-06-14T02:41:50;19.90;85.60
2391;DHT22;22957;50.824;4.360;2023-06-14T02:44:19;19.70;87.50
2391;DHT22;22957;50.824;4.360;2023-06-14T02:46:45;19.70;87.10
2391;DHT22;22957;50.824;4.360;2023-06-14T02:49:11;20.10;86.60
2391;DHT22;22957;50.824;4.360;2023-06-14T02:51:37;20.10;86.00
2391;DHT22;22957;50.824;4.360;2023-06-14T02:54:02;20.40;86.50
2391;DHT22;22957;50.824;4.360;2023-06-14T02:56:29;20.00;86.80
2391;DHT22;22957;50.824;4.360;2023-06-14T02:58:54;20.40;86.90
2391;DHT22;22957;50.824;4.360;2023-06-14T03:01:20;19.80;87.10
2391;DHT22;22957;50.824;4.360;2023-06-14T03:03:47;19.70;88.10
2391;DHT22;22957;50.824;4.360;2023-06-14T03:06:12;19.80;88.90
2391;DHT22;22957;50.824;4.360;2023-06-14T03:08:39;20.00;87.70
2391;DHT22;22957;50.824;4.360;2023-06-14T03:11:07;20.00;89.90
2391;DHT22;22957;50.824;4.360;2023-06-14T03:13:34;20.00;88.30
2391;DHT22;22957;50.824;4.360;2023-06-14T03:15:59;19.90;87.90
2391;DHT22;22957;50.824;4.360;2023-06-14T03:18:29;19.90;89.70
2391;DHT22;22957;50.824;4.360;2023-06-14T03:20:56;19.40;89.10
2391;DHT22;22957;50.824;4.360;2023-06-14T03:23:23;19.50;89.90
2391;DHT22;22957;50.824;4.360;2023-06-14T03:25:48;20.00;89.80
2391;DHT22;22957;50.824;4.360;2023-06-14T03:28:14;20.50;89.40
2391;DHT22;22957;50.824;4.360;2023-06-14T03:30:39;20.20;89.40
2391;DHT22;22957;50.824;4.360;2023-06-14T03:33:05;20.20;88.30
2391;DHT22;22957;50.824;4.360;2023-06-14T03:35:31;20.10;89.80
2391;DHT22;22957;50.824;4.360;2023-06-14T03:37:57;20.50;89.00
2391;DHT22;22957;50.824;4.360;2023-06-14T03:40:22;19.70;90.30
2391;DHT22;22957;50.824;4.360;2023-06-14T03:42:52;19.30;90.90
2391;DHT22;22957;50.824;4.360;2023-06-14T03:45:18;19.50;91.30
2391;DHT22;22957;50.824;4.360;2023-06-14T03:47:43;20.00;90.70
2391;DHT22;22957;50.824;4.360;2023-06-14T03:50:09;19.60;90.80
2391;DHT22;22957;50.824;4.360;2023-06-14T03:52:35;19.50;91.20
2391;DHT22;22957;50.824;4.360;2023-06-14T03:55:00;19.20;91.80
2391;DHT22;22957;50.824;4.360;2023-06-14T03:57:26;19.00;92.00
2391;DHT22;22957;50.824;4.360;2023-06-14T03:59:52;19.10;92.30
2391;DHT22;22957;50.824;4.360;2023-06-14T04:02:17;18.80;92.80
2391;DHT22;22957;50.824;4.360;2023-06-14T04:04:44;19.10;92.80
2391;DHT22;22957;50.824;4.360;2023-06-14T04:07:11;19.90;92.30
2391;DHT22;22957;50.824;4.360;2023-06-14T04:09:37;19.20;92.20
2391;DHT22;22957;50.824;4.360;2023-06-14T04:12:03;19.00;92.70
2391;DHT22;22957;50.824;4.360;2023-06-14T04:14:29;19.10;92.80
2391;DHT22;22957;50.824;4.360;2023-06-14T04:16:56;19.50;93.00
2391;DHT22;22957;50.824;4.360;2023-06-14T04:19:22;19.60;92.50
2391;DHT22;22957;50.824;4.360;2023-06-14T04:21:47;19.50;92.50
2391;DHT22;22957;50.824;4.360;2023-06-14T04:24:13;19.60;92.80
2391;DHT22;22957;50.824;4.360;2023-06-14T04:26:42;19.40;93.40
2391;DHT22;22957;50.824;4.360;2023-06-14T04:29:10;19.20;93.50
2391;DHT22;22957;50.824;4.360;2023-06-14T04:31:40;19.60;93.40
2391;DHT22;22957;50.824;4.360;2023-06-14T04:34:06;19.50;93.00
2391;DHT22;22957;50.824;4.360;2023-06-14T04:36:34;19.20;93.10
2391;DHT22;22957;50.824;4.360;2023-06-14T04:39:03;19.40;92.90
2391;DHT22;22957;50.824;4.360;2023-06-14T04:41:30;20.00;93.10
2391;DHT22;22957;50.824;4.360;2023-06-14T04:43:56;19.80;91.90
2391;DHT22;22957;50.824;4.360;2023-06-14T04:46:27;19.40;92.80
2391;DHT22;22957;50.824;4.360;2023-06-14T04:48:54;19.50;92.60
2391;DHT22;22957;50.824;4.360;2023-06-14T04:51:20;19.30;93.40
2391;DHT22;22957;50.824;4.360;2023-06-14T04:53:47;19.50;93.20
2391;DHT22;22957;50.824;4.360;2023-06-14T04:56:15;20.10;92.50
2391;DHT22;22957;50.824;4.360;2023-06-14T04:58:40;20.00;91.80
2391;DHT22;22957;50.824;4.360;2023-06-14T05:01:06;19.40;93.10
2391;DHT22;22957;50.824;4.360;2023-06-14T05:03:34;19.50;93.20
2391;DHT22;22957;50.824;4.360;2023-06-14T05:06:00;19.20;93.20
2391;DHT22;22957;50.824;4.360;2023-06-14T05:08:26;19.30;93.20
2391;DHT22;22957;50.824;4.360;2023-06-14T05:10:52;19.80;93.40
2391;DHT22;22957;50.824;4.360;2023-06-14T05:13:18;20.20;91.90
2391;DHT22;22957;50.824;4.360;2023-06-14T05:15:44;20.60;91.60
2391;DHT22;22957;50.824;4.360;2023-06-14T05:18:10;20.40;91.80
2391;DHT22;22957;50.824;4.360;2023-06-14T05:20:35;20.70;91.50
2391;DHT22;22957;50.824;4.360;2023-06-14T05:23:02;20.30;91.50
2391;DHT22;22957;50.824;4.360;2023-06-14T05:25:28;20.60;91.50
2391;DHT22;22957;50.824;4.360;2023-06-14T05:27:54;20.40;91.20
2391;DHT22;22957;50.824;4.360;2023-06-14T05:30:19;20.10;91.20
2391;DHT22;22957;50.824;4.360;2023-06-14T05:32:45;20.30;91.60
2391;DHT22;22957;50.824;4.360;2023-06-14T05:35:11;20.20;91.30
2391;DHT22;22957;50.824;4.360;2023-06-14T05:37:37;20.30;91.70
2391;DHT22;22957;50.824;4.360;2023-06-14T05:40:03;20.50;91.70
2391;DHT22;22957;50.824;4.360;2023-06-14T05:42:31;21.50;90.70
2391;DHT22;22957;50.824;4.360;2023-06-14T05:44:57;21.70;90.10
2391;DHT22;22957;50.824;4.360;2023-06-14T05:47:22;22.10;89.80
2391;DHT22;22957;50.824;4.360;2023-06-14T05:49:48;22.50;87.50
2391;DHT22;22957;50.824;4.360;2023-06-14T05:52:13;22.50;88.00
2391;DHT22;22957;50.824;4.360;2023-06-14T05:54:39;22.50;88.20
2391;DHT22;22957;50.824;4.360;2023-06-14T05:57:05;23.30;86.70
2391;DHT22;22957;50.824;4.360;2023-06-14T05:59:31;23.60;84.90
2391;DHT22;22957;50.824;4.360;2023-06-14T06:01:57;24.20;82.50
2391;DHT22;22957;50.824;4.360;2023-06-14T06:04:23;24.20;83.30
2391;DHT22;22957;50.824;4.360;2023-06-14T06:06:48;23.90;83.00
2391;DHT22;22957;50.824;4.360;2023-06-14T06:09:14;23.30;84.70
2391;DHT22;22957;50.824;4.360;2023-06-14T06:11:40;24.00;84.70
2391;DHT22;22957;50.824;4.360;2023-06-14T06:14:06;24.80;81.70
2391;DHT22;22957;50.824;4.360;2023-06-14T06:16:32;25.70;79.50
2391;DHT22;22957;50.824;4.360;2023-06-14T06:18:58;25.50;79.30
2391;DHT22;22957;50.824;4.360;2023-06-14T06:21:23;23.50;81.20
2391;DHT22;22957;50.824;4.360;2023-06-14T06:23:49;24.00;81.40
2391;DHT22;22957;50.824;4.360;2023-06-14T06:26:15;24.10;82.60
2391;DHT22;22957;50.824;4.360;2023-06-14T06:28:40;25.00;80.50
2391;DHT22;22957;50.824;4.360;2023-06-14T06:31:06;23.80;80.90
2391;DHT22;22957;50.824;4.360;2023-06-14T06:33:31;22.30;84.30
2391;DHT22;22957;50.824;4.360;2023-06-14T06:35:57;23.20;85.10
2391;DHT22;22957;50.824;4.360;2023-06-14T06:38:23;24.20;81.80
2391;DHT22;22957;50.824;4.360;2023-06-14T06:40:48;25.70;81.10
2391;DHT22;22957;50.824;4.360;2023-06-14T06:43:14;24.10;80.50
2391;DHT22;22957;50.824;4.360;2023-06-14T06:45:40;26.10;80.00
2391;DHT22;22957;50.824;4.360;2023-06-14T06:48:06;26.90;77.40
2391;DHT22;22957;50.824;4.360;2023-06-14T06:50:31;24.30;79.20
2391;DHT22;22957;50.824;4.360;2023-06-14T06:52:57;22.60;83.20
2391;DHT22;22957;50.824;4.360;2023-06-14T06:55:23;22.90;84.40
2391;DHT22;22957;50.824;4.360;2023-06-14T06:57:48;23.80;83.70
2391;DHT22;22957;50.824;4.360;2023-06-14T07:00:15;24.30;82.30
2391;DHT22;22957;50.824;4.360;2023-06-14T07:02:41;24.90;80.80
2391;DHT22;22957;50.824;4.360;2023-06-14T07:05:07;26.80;77.70
2391;DHT22;22957;50.824;4.360;2023-06-14T07:07:33;26.30;75.10
2391;DHT22;22957;50.824;4.360;2023-06-14T07:09:59;26.40;77.30
2391;DHT22;22957;50.824;4.360;2023-06-14T07:12:25;28.20;72.20
2391;DHT22;22957;50.824;4.360;2023-06-14T07:14:51;26.30;73.20
2391;DHT22;22957;50.824;4.360;2023-06-14T07:17:17;25.40;75.70
2391;DHT22;22957;50.824;4.360;2023-06-14T07:19:42;25.50;73.80
2391;DHT22;22957;50.824;4.360;2023-06-14T07:22:08;25.30;75.70
2391;DHT22;22957;50.824;4.360;2023-06-14T07:24:33;25.10;74.60
2391;DHT22;22957;50.824;4.360;2023-06-14T07:27:01;24.30;76.70
2391;DHT22;22957;50.824;4.360;2023-06-14T07:29:28;24.20;77.20
2391;DHT22;22957;50.824;4.360;2023-06-14T07:31:54;25.40;77.00
2391;DHT22;22957;50.824;4.360;2023-06-14T07:34:19;26.90;74.50
2391;DHT22;22957;50.824;4.360;2023-06-14T07:36:45;28.60;70.50
2391;DHT22;22957;50.824;4.360;2023-06-14T07:39:11;28.70;69.10
2391;DHT22;22957;50.824;4.360;2023-06-14T07:41:37;27.00;69.50
2391;DHT22;22957;50.824;4.360;2023-06-14T07:44:03;26.40;73.60
2391;DHT22;22957;50.824;4.360;2023-06-14T07:46:28;29.30;68.80
2391;DHT22;22957;50.824;4.360;2023-06-14T07:48:54;27.50;68.80
2391;DHT22;22957;50.824;4.360;2023-06-14T07:51:20;26.40;70.60
2391;DHT22;22957;50.824;4.360;2023-06-14T07:53:48;26.60;72.50
2391;DHT22;22957;50.824;4.360;2023-06-14T07:56:13;25.30;70.10
2391;DHT22;22957;50.824;4.360;2023-06-14T07:58:39;25.60;72.00
2391;DHT22;22957;50.824;4.360;2023-06-14T08:01:05;25.50;73.00
2391;DHT22;22957;50.824;4.360;2023-06-14T08:03:33;26.30;71.70
2391;DHT22;22957;50.824;4.360;2023-06-14T08:05:58;28.00;71.00
2391;DHT22;22957;50.824;4.360;2023-06-14T08:08:24;27.90;68.40
2391;DHT22;22957;50.824;4.360;2023-06-14T08:10:50;26.80;70.60
2391;DHT22;22957;50.824;4.360;2023-06-14T08:13:15;26.30;68.30
2391;DHT22;22957;50.824;4.360;2023-06-14T08:15:41;26.40;69.70
2391;DHT22;22957;50.824;4.360;2023-06-14T08:18:07;26.50;69.00
2391;DHT22;22957;50.824;4.360;2023-06-14T08:20:32;28.30;68.10
2391;DHT22;22957;50.824;4.360;2023-06-14T08:23:00;28.70;66.40
2391;DHT22;22957;50.824;4.360;2023-06-14T08:25:25;27.10;68.30
2391;DHT22;22957;50.824;4.360;2023-06-14T08:27:51;28.10;68.30
2391;DHT22;22957;50.824;4.360;2023-06-14T08:30:17;29.20;63.90
2391;DHT22;22957;50.824;4.360;2023-06-14T08:32:43;30.40;63.00
2391;DHT22;22957;50.824;4.360;2023-06-14T08:35:08;30.60;61.10
2391;DHT22;22957;50.824;4.360;2023-06-14T08:37:38;30.20;60.60
2391;DHT22;22957;50.824;4.360;2023-06-14T08:40:28;31.70;61.40
2391;DHT22;22957;50.824;4.360;2023-06-14T08:42:54;31.40;58.90
2391;DHT22;22957;50.824;4.360;2023-06-14T08:45:21;26.90;66.10
2391;DHT22;22957;50.824;4.360;2023-06-14T08:47:47;29.00;64.70
2391;DHT22;22957;50.824;4.360;2023-06-14T08:50:20;28.00;64.70
2391;DHT22;22957;50.824;4.360;2023-06-14T08:52:48;27.20;67.80
2391;DHT22;22957;50.824;4.360;2023-06-14T08:55:18;26.60;66.10
2391;DHT22;22957;50.824;4.360;2023-06-14T08:57:46;27.10;67.50
2391;DHT22;22957;50.824;4.360;2023-06-14T09:00:12;26.20;67.40
2391;DHT22;22957;50.824;4.360;2023-06-14T09:02:39;28.30;64.40
2391;DHT22;22957;50.824;4.360;2023-06-14T09:05:09;26.10;69.50
2391;DHT22;22957;50.824;4.360;2023-06-14T09:07:35;25.10;73.10
2391;DHT22;22957;50.824;4.360;2023-06-14T09:10:09;25.30;74.30
2391;DHT22;22957;50.824;4.360;2023-06-14T09:12:35;25.00;76.70
2391;DHT22;22957;50.824;4.360;2023-06-14T09:15:02;25.20;75.40
2391;DHT22;22957;50.824;4.360;2023-06-14T09:17:32;25.20;75.40
2391;DHT22;22957;50.824;4.360;2023-06-14T09:19:59;25.30;75.20
2391;DHT22;22957;50.824;4.360;2023-06-14T09:22:25;25.80;74.80
2391;DHT22;22957;50.824;4.360;2023-06-14T09:24:50;25.70;76.40
2391;DHT22;22957;50.824;4.360;2023-06-14T09:27:16;26.20;74.70
2391;DHT22;22957;50.824;4.360;2023-06-14T09:29:41;26.90;73.20
2391;DHT22;22957;50.824;4.360;2023-06-14T09:32:07;28.40;71.70
2391;DHT22;22957;50.824;4.360;2023-06-14T09:34:34;27.70;70.50
2391;DHT22;22957;50.824;4.360;2023-06-14T09:37:00;27.50;71.00
2391;DHT22;22957;50.824;4.360;2023-06-14T09:39:26;28.10;65.70
2391;DHT22;22957;50.824;4.360;2023-06-14T09:41:52;28.00;67.50
2391;DHT22;22957;50.824;4.360;2023-06-14T09:44:18;27.50;68.10
2391;DHT22;22957;50.824;4.360;2023-06-14T09:46:45;26.60;70.40
2391;DHT22;22957;50.824;4.360;2023-06-14T09:49:11;26.50;68.30
2391;DHT22;22957;50.824;4.360;2023-06-14T09:51:43;25.90;69.80
2391;DHT22;22957;50.824;4.360;2023-06-14T09:54:15;26.80;70.20
2391;DHT22;22957;50.824;4.360;2023-06-14T09:56:45;26.10;71.10
2391;DHT22;22957;50.824;4.360;2023-06-14T09:59:12;26.70;69.90
2391;DHT22;22957;50.824;4.360;2023-06-14T10:01:42;28.00;67.10
2391;DHT22;22957;50.824;4.360;2023-06-14T10:04:09;28.80;65.20
2391;DHT22;22957;50.824;4.360;2023-06-14T10:06:36;27.90;63.60
2391;DHT22;22957;50.824;4.360;2023-06-14T10:09:04;25.90;66.50
2391;DHT22;22957;50.824;4.360;2023-06-14T10:11:31;26.30;68.60
2391;DHT22;22957;50.824;4.360;2023-06-14T10:13:58;26.20;65.70
2391;DHT22;22957;50.824;4.360;2023-06-14T10:16:56;26.30;66.60
2391;DHT22;22957;50.824;4.360;2023-06-14T10:19:40;26.40;65.30
2391;DHT22;22957;50.824;4.360;2023-06-14T10:22:14;27.90;64.80
2391;DHT22;22957;50.824;4.360;2023-06-14T10:24:43;26.60;61.60
2391;DHT22;22957;50.824;4.360;2023-06-14T10:27:09;26.70;64.30
2391;DHT22;22957;50.824;4.360;2023-06-14T10:32:20;26.60;65.60
2391;DHT22;22957;50.824;4.360;2023-06-14T10:34:45;28.50;64.50
2391;DHT22;22957;50.824;4.360;2023-06-14T10:37:18;28.20;65.50
2391;DHT22;22957;50.824;4.360;2023-06-14T10:39:45;29.10;62.60
2391;DHT22;22957;50.824;4.360;2023-06-14T10:42:14;29.40;62.80
2391;DHT22;22957;50.824;4.360;2023-06-14T10:44:49;29.30;60.40
2391;DHT22;22957;50.824;4.360;2023-06-14T10:47:22;28.40;63.10
2391;DHT22;22957;50.824;4.360;2023-06-14T10:49:54;26.60;65.00
2391;DHT22;22957;50.824;4.360;2023-06-14T10:52:26;27.90;65.30
2391;DHT22;22957;50.824;4.360;2023-06-14T10:55:10;28.40;60.70
2391;DHT22;22957;50.824;4.360;2023-06-14T10:57:38;28.10;62.30
2391;DHT22;22957;50.824;4.360;2023-06-14T11:00:05;29.10;60.60
2391;DHT22;22957;50.824;4.360;2023-06-14T11:05:14;27.80;61.30
2391;DHT22;22957;50.824;4.360;2023-06-14T11:13:05;29.10;60.40
2391;DHT22;22957;50.824;4.360;2023-06-14T11:15:31;29.90;58.30
2391;DHT22;22957;50.824;4.360;2023-06-14T11:18:00;28.80;58.10
2391;DHT22;22957;50.824;4.360;2023-06-14T11:20:26;30.80;58.70
2391;DHT22;22957;50.824;4.360;2023-06-14T11:22:53;30.20;56.60
2391;DHT22;22957;50.824;4.360;2023-06-14T11:25:19;30.30;57.10
2391;DHT22;22957;50.824;4.360;2023-06-14T11:27:45;28.10;57.20
2391;DHT22;22957;50.824;4.360;2023-06-14T11:30:11;29.20;57.90
2391;DHT22;22957;50.824;4.360;2023-06-14T11:32:37;29.00;57.40
2391;DHT22;22957;50.824;4.360;2023-06-14T11:35:04;29.40;58.00
2391;DHT22;22957;50.824;4.360;2023-06-14T11:37:33;31.40;56.10
2391;DHT22;22957;50.824;4.360;2023-06-14T11:40:02;29.40;56.70
2391;DHT22;22957;50.824;4.360;2023-06-14T11:42:34;28.60;57.40
2391;DHT22;22957;50.824;4.360;2023-06-14T11:45:00;28.00;58.70
2391;DHT22;22957;50.824;4.360;2023-06-14T11:47:34;27.80;59.30
2391;DHT22;22957;50.824;4.360;2023-06-14T11:50:00;26.50;59.00
2391;DHT22;22957;50.824;4.360;2023-06-14T11:52:26;28.20;58.40
2391;DHT22;22957;50.824;4.360;2023-06-14T11:54:52;28.80;57.70
2391;DHT22;22957;50.824;4.360;2023-06-14T11:57:18;29.00;58.30
2391;DHT22;22957;50.824;4.360;2023-06-14T11:59:44;27.60;58.20
2391;DHT22;22957;50.824;4.360;2023-06-14T12:02:21;27.90;58.30
2391;DHT22;22957;50.824;4.360;2023-06-14T12:04:48;28.80;58.30
2391;DHT22;22957;50.824;4.360;2023-06-14T12:07:16;28.40;57.40
2391;DHT22;22957;50.824;4.360;2023-06-14T12:12:26;26.50;58.10
2391;DHT22;22957;50.824;4.360;2023-06-14T12:14:53;26.70;60.90
2391;DHT22;22957;50.824;4.360;2023-06-14T12:17:19;27.30;60.00
2391;DHT22;22957;50.824;4.360;2023-06-14T12:19:46;27.50;59.10
2391;DHT22;22957;50.824;4.360;2023-06-14T12:22:13;27.00;59.40
2391;DHT22;22957;50.824;4.360;2023-06-14T12:24:39;27.30;58.90
2391;DHT22;22957;50.824;4.360;2023-06-14T12:27:08;27.10;59.20
2391;DHT22;22957;50.824;4.360;2023-06-14T12:29:33;28.70;58.60
2391;DHT22;22957;50.824;4.360;2023-06-14T12:32:00;29.50;58.00
2391;DHT22;22957;50.824;4.360;2023-06-14T12:34:26;30.20;55.60
2391;DHT22;22957;50.824;4.360;2023-06-14T12:36:55;27.90;57.90
2391;DHT22;22957;50.824;4.360;2023-06-14T12:39:22;30.40;55.60
2391;DHT22;22957;50.824;4.360;2023-06-14T12:41:48;30.80;53.30
2391;DHT22;22957;50.824;4.360;2023-06-14T12:44:14;30.20;51.60
2391;DHT22;22957;50.824;4.360;2023-06-14T12:46:41;30.70;53.70
2391;DHT22;22957;50.824;4.360;2023-06-14T12:49:11;28.70;55.10
2391;DHT22;22957;50.824;4.360;2023-06-14T12:51:38;26.90;57.30
2391;DHT22;22957;50.824;4.360;2023-06-14T12:54:05;27.90;57.70
2391;DHT22;22957;50.824;4.360;2023-06-14T12:56:30;28.40;54.70
2391;DHT22;22957;50.824;4.360;2023-06-14T12:58:56;28.10;55.50
2391;DHT22;22957;50.824;4.360;2023-06-14T13:01:22;27.00;57.40
2391;DHT22;22957;50.824;4.360;2023-06-14T13:03:47;28.70;56.10
2391;DHT22;22957;50.824;4.360;2023-06-14T13:06:13;27.50;56.00
2391;DHT22;22957;50.824;4.360;2023-06-14T13:08:39;27.30;56.40
2391;DHT22;22957;50.824;4.360;2023-06-14T13:11:05;27.80;57.80
2391;DHT22;22957;50.824;4.360;2023-06-14T13:13:30;28.40;55.40
2391;DHT22;22957;50.824;4.360;2023-06-14T13:15:56;27.90;56.60
2391;DHT22;22957;50.824;4.360;2023-06-14T13:18:22;27.40;56.90
2391;DHT22;22957;50.824;4.360;2023-06-14T13:20:47;28.60;55.90
2391;DHT22;22957;50.824;4.360;2023-06-14T13:23:13;29.80;55.80
2391;DHT22;22957;50.824;4.360;2023-06-14T13:25:39;28.20;55.40
2391;DHT22;22957;50.824;4.360;2023-06-14T13:28:05;27.50;58.10
2391;DHT22;22957;50.824;4.360;2023-06-14T13:30:32;26.90;58.10
2391;DHT22;22957;50.824;4.360;2023-06-14T13:32:58;27.20;58.40
2391;DHT22;22957;50.824;4.360;2023-06-14T13:35:24;26.80;58.00
2391;DHT22;22957;50.824;4.360;2023-06-14T13:37:50;27.40;57.70
2391;DHT22;22957;50.824;4.360;2023-06-14T13:40:16;27.70;56.90
2391;DHT22;22957;50.824;4.360;2023-06-14T13:42:42;26.40;56.70
2391;DHT22;22957;50.824;4.360;2023-06-14T13:45:10;26.60;57.90
2391;DHT22;22957;50.824;4.360;2023-06-14T13:47:35;27.10;56.60
2391;DHT22;22957;50.824;4.360;2023-06-14T13:50:01;27.10;57.50
2391;DHT22;22957;50.824;4.360;2023-06-14T13:52:27;26.80;57.40
2391;DHT22;22957;50.824;4.360;2023-06-14T13:54:53;27.40;56.80
2391;DHT22;22957;50.824;4.360;2023-06-14T13:57:19;27.70;56.40
2391;DHT22;22957;50.824;4.360;2023-06-14T13:59:44;28.30;55.30
2391;DHT22;22957;50.824;4.360;2023-06-14T14:02:10;29.10;54.50
2391;DHT22;22957;50.824;4.360;2023-06-14T14:04:37;30.90;51.50
2391;DHT22;22957;50.824;4.360;2023-06-14T14:07:06;28.50;52.00
2391;DHT22;22957;50.824;4.360;2023-06-14T14:09:33;29.20;52.60
2391;DHT22;22957;50.824;4.360;2023-06-14T14:11:59;28.80;52.80
2391;DHT22;22957;50.824;4.360;2023-06-14T14:14:26;30.20;51.60
2391;DHT22;22957;50.824;4.360;2023-06-14T14:16:52;29.50;50.50
2391;DHT22;22957;50.824;4.360;2023-06-14T14:19:23;30.40;50.90
2391;DHT22;22957;50.824;4.360;2023-06-14T14:21:48;28.90;51.40
2391;DHT22;22957;50.824;4.360;2023-06-14T14:24:14;27.90;52.80
2391;DHT22;22957;50.824;4.360;2023-06-14T14:26:40;27.70;53.20
2391;DHT22;22957;50.824;4.360;2023-06-14T14:29:06;28.20;51.70
2391;DHT22;22957;50.824;4.360;2023-06-14T14:31:31;27.20;53.10
2391;DHT22;22957;50.824;4.360;2023-06-14T14:33:57;27.60;53.00
2391;DHT22;22957;50.824;4.360;2023-06-14T14:36:23;28.00;52.20
2391;DHT22;22957;50.824;4.360;2023-06-14T14:38:48;27.90;53.00
2391;DHT22;22957;50.824;4.360;2023-06-14T14:41:14;28.20;52.40
2391;DHT22;22957;50.824;4.360;2023-06-14T14:43:40;28.50;51.10
2391;DHT22;22957;50.824;4.360;2023-06-14T14:46:05;27.70;52.70
2391;DHT22;22957;50.824;4.360;2023-06-14T14:48:31;27.10;52.40
2391;DHT22;22957;50.824;4.360;2023-06-14T14:50:57;26.90;52.60
2391;DHT22;22957;50.824;4.360;2023-06-14T14:53:22;26.70;53.90
2391;DHT22;22957;50.824;4.360;2023-06-14T14:55:49;27.00;53.40
2391;DHT22;22957;50.824;4.360;2023-06-14T14:58:14;26.70;53.30
2391;DHT22;22957;50.824;4.360;2023-06-14T15:00:46;27.00;53.60
2391;DHT22;22957;50.824;4.360;2023-06-14T15:03:12;27.50;53.10
2391;DHT22;22957;50.824;4.360;2023-06-14T15:05:38;27.90;52.10
2391;DHT22;22957;50.824;4.360;2023-06-14T15:08:04;27.00;51.90
2391;DHT22;22957;50.824;4.360;2023-06-14T15:10:35;27.40;52.80
2391;DHT22;22957;50.824;4.360;2023-06-14T15:13:01;27.90;51.60
2391;DHT22;22957;50.824;4.360;2023-06-14T15:15:27;27.10;51.10
2391;DHT22;22957;50.824;4.360;2023-06-14T15:17:52;27.60;52.50
2391;DHT22;22957;50.824;4.360;2023-06-14T15:20:18;28.40;51.20
2391;DHT22;22957;50.824;4.360;2023-06-14T15:22:43;27.30;51.60
2391;DHT22;22957;50.824;4.360;2023-06-14T15:25:09;27.10;52.50
2391;DHT22;22957;50.824;4.360;2023-06-14T15:27:35;27.00;52.50
2391;DHT22;22957;50.824;4.360;2023-06-14T15:30:01;26.10;53.10
2391;DHT22;22957;50.824;4.360;2023-06-14T15:32:27;26.20;54.20
2391;DHT22;22957;50.824;4.360;2023-06-14T15:34:52;25.70;53.80
2391;DHT22;22957;50.824;4.360;2023-06-14T15:37:18;26.00;54.70
2391;DHT22;22957;50.824;4.360;2023-06-14T15:39:43;26.40;54.10
2391;DHT22;22957;50.824;4.360;2023-06-14T15:42:09;27.00;53.30
2391;DHT22;22957;50.824;4.360;2023-06-14T15:44:35;27.90;53.10
2391;DHT22;22957;50.824;4.360;2023-06-14T15:47:01;27.40;53.30
2391;DHT22;22957;50.824;4.360;2023-06-14T15:49:27;27.00;53.60
2391;DHT22;22957;50.824;4.360;2023-06-14T15:51:52;27.50;53.80
2391;DHT22;22957;50.824;4.360;2023-06-14T15:54:18;27.70;53.50
2391;DHT22;22957;50.824;4.360;2023-06-14T15:56:44;28.60;52.80